Time;durP1;ratioP1;P1;durP2;ratioP2;P2;SDS_P1;SDS_P2;PMS_P1;PMS_P2;Temp;Humidity;BMP_temperature;BMP_pressure;BME280_temperature;BME280_humidity;BME280_pressure;Samples;Min_cycle;Max_cycle;Signal;HPM_P1;HPM_P2
2022/05/18 00:00:29;;;;;;;14.15;6.88;;;;;;;17.30;88.74;100205.47;4892955;29;20202;-78
2022/05/18 00:03:07;;;;;;;10.63;7.85;;;;;;;16.95;90.06;100198.59;4895937;29;20480;-74
2022/05/18 00:05:42;;;;;;;8.43;6.00;;;;;;;17.21;90.29;100227.84;4893268;29;20829;-78
2022/05/18 00:08:09;;;;;;;13.20;8.40;;;;;;;17.17;90.86;100228.84;4889466;29;20143;-75
2022/05/18 00:10:37;;;;;;;8.15;6.45;;;;;;;17.20;89.74;100204.03;4888093;29;20051;-75
2022/05/18 00:13:03;;;;;;;10.43;6.78;;;;;;;17.21;89.46;100222.53;4886630;29;20144;-77
2022/05/18 00:15:29;;;;;;;8.85;7.40;;;;;;;17.08;89.80;100205.25;4894486;29;20036;-75
2022/05/18 00:17:57;;;;;;;10.57;6.57;;;;;;;17.13;90.34;100213.06;4892080;29;20044;-75
2022/05/18 00:20:23;;;;;;;9.25;7.22;;;;;;;17.29;89.79;100239.06;4883333;29;20529;-75
2022/05/18 00:22:53;;;;;;;13.80;6.13;;;;;;;17.29;87.72;100231.13;4886643;29;20083;-76
2022/05/18 00:25:22;;;;;;;17.23;7.40;;;;;;;17.18;85.12;100196.09;4906418;29;20044;-76
2022/05/18 00:27:50;;;;;;;7.05;5.03;;;;;;;17.51;86.32;100262.28;4894558;29;20543;-76
2022/05/18 00:30:18;;;;;;;12.48;6.15;;;;;;;17.30;88.11;100274.41;4896170;29;20033;-76
2022/05/18 00:32:44;;;;;;;11.30;5.45;;;;;;;17.06;87.43;100199.13;4887338;29;20049;-77
2022/05/18 00:35:12;;;;;;;9.65;6.10;;;;;;;16.98;88.31;100227.66;4892156;29;20059;-76
2022/05/18 00:37:38;;;;;;;10.70;4.95;;;;;;;17.02;87.27;100227.53;4894595;29;20154;-76
2022/05/18 00:40:05;;;;;;;9.27;5.88;;;;;;;17.12;86.46;100241.38;4890244;29;20068;-77
2022/05/18 00:42:30;;;;;;;13.63;5.18;;;;;;;17.16;87.04;100274.84;4904685;29;20039;-75
2022/05/18 00:44:56;;;;;;;9.23;4.07;;;;;;;16.98;86.08;100230.31;4895384;29;20041;-76
2022/05/18 00:47:22;;;;;;;8.98;5.53;;;;;;;17.04;88.04;100284.03;4891692;29;20080;-76
2022/05/18 00:49:53;;;;;;;8.15;4.30;;;;;;;16.74;86.07;100247.75;4889713;29;20052;-76
2022/05/18 00:52:27;;;;;;;7.53;3.72;;;;;;;15.82;87.97;100222.78;4880225;29;20103;-75
2022/05/18 00:54:54;;;;;;;8.23;5.00;;;;;;;16.11;89.00;100207.94;4888849;29;20045;-76
2022/05/18 00:57:27;;;;;;;6.80;4.18;;;;;;;16.50;89.50;100199.81;4892453;29;20048;-75
2022/05/18 00:59:55;;;;;;;;;;;;;;;16.79;89.48;100235.28;4893301;29;20051;-75
2022/05/18 01:02:24;;;;;;;10.13;5.63;;;;;;;16.46;88.76;100171.72;4887447;29;19938;-77
2022/05/18 01:04:56;;;;;;;7.30;5.00;;;;;;;16.30;88.90;100188.94;4893616;29;20148;-76
2022/05/18 01:07:29;;;;;;;9.30;5.40;;;;;;;16.43;89.61;100203.56;4892161;29;20097;-76
2022/05/18 01:09:56;;;;;;;7.60;4.40;;;;;;;16.35;90.37;100237.34;4892768;29;20115;-76
2022/05/18 01:12:22;;;;;;;6.60;4.10;;;;;;;16.09;90.78;100216.84;4888980;29;20069;-76
2022/05/18 01:15:00;;;;;;;8.27;4.70;;;;;;;16.35;91.21;100259.38;4896445;29;20214;-76
2022/05/18 01:17:29;;;;;;;9.90;4.72;;;;;;;16.23;91.42;100227.94;4894599;29;20060;-75
2022/05/18 01:19:58;;;;;;;16.38;5.82;;;;;;;16.16;93.13;100231.66;4890446;29;20048;-75
2022/05/18 01:22:42;;;;;;;9.23;4.47;;;;;;;15.89;93.09;100202.31;4886993;29;20116;-76
2022/05/18 01:25:45;;;;;;;7.78;4.32;;;;;;;15.58;93.75;100200.41;4894447;29;21157;-76
2022/05/18 01:28:11;;;;;;;7.05;3.47;;;;;;;15.61;94.16;100241.78;4901266;29;20060;-75
2022/05/18 01:30:42;;;;;;;9.20;4.50;;;;;;;15.57;94.41;100189.88;4899990;29;20104;-76
2022/05/18 01:33:09;;;;;;;12.30;3.58;;;;;;;15.39;94.83;100217.63;4893809;29;20044;-77
2022/05/18 01:35:41;;;;;;;8.77;2.80;;;;;;;14.98;95.12;100217.63;4896793;29;20472;-76
2022/05/18 01:38:07;;;;;;;19.55;6.13;;;;;;;15.28;95.88;100209.91;4910711;29;20353;-76
2022/05/18 01:40:37;;;;;;;11.00;4.05;;;;;;;15.60;95.31;100264.72;4896014;29;20052;-76
2022/05/18 01:43:11;;;;;;;14.65;4.43;;;;;;;14.89;96.56;100204.63;4893051;29;20060;-76
2022/05/18 01:45:36;;;;;;;12.32;3.55;;;;;;;15.08;96.23;100296.72;4892577;29;20067;-76
2022/05/18 01:48:32;;;;;;;5.82;2.22;;;;;;;13.28;94.40;100249.59;4898566;29;20060;-76
2022/05/18 01:51:00;;;;;;;10.32;2.95;;;;;;;13.39;95.38;100238.88;4894856;29;20064;-76
2022/05/18 01:53:26;;;;;;;11.55;2.90;;;;;;;13.68;95.29;100259.56;4894165;29;20054;-77
2022/05/18 01:55:52;;;;;;;6.18;2.63;;;;;;;13.01;95.66;100263.97;4888144;29;20580;-76
2022/05/18 01:58:20;;;;;;;11.40;2.58;;;;;;;12.98;96.34;100232.41;4900751;29;20448;-76
2022/05/18 02:00:46;;;;;;;5.95;2.58;;;;;;;13.10;96.61;100209.38;4894428;29;20612;-76
2022/05/18 02:03:13;;;;;;;9.90;3.50;;;;;;;13.28;96.30;100254.88;4896957;29;20036;-78
2022/05/18 02:05:40;;;;;;;5.60;2.17;;;;;;;12.64;96.16;100196.84;4896579;29;20114;-75
2022/05/18 02:08:06;;;;;;;4.60;1.83;;;;;;;13.13;96.31;100252.41;4891763;29;20052;-78
2022/05/18 02:10:33;;;;;;;6.50;1.80;;;;;;;13.29;96.02;100254.81;4911370;29;20111;-77
2022/05/18 02:12:59;;;;;;;7.32;2.47;;;;;;;12.88;96.00;100223.75;4903403;29;20053;-77
2022/05/18 02:15:24;;;;;;;3.17;1.55;;;;;;;12.92;95.90;100207.00;4895636;29;20036;-77
2022/05/18 02:17:51;;;;;;;5.20;2.63;;;;;;;12.90;95.81;100219.34;4896297;29;20128;-77
2022/05/18 02:20:18;;;;;;;4.90;2.22;;;;;;;12.40;96.19;100170.78;4889893;29;20052;-79
2022/05/18 02:22:45;;;;;;;6.47;2.72;;;;;;;12.72;98.08;100244.13;4887094;29;20126;-76
2022/05/18 02:25:11;;;;;;;9.95;3.30;;;;;;;12.52;99.16;100282.94;4898655;29;20818;-77
2022/05/18 02:27:36;;;;;;;4.43;2.20;;;;;;;12.16;99.50;100240.31;4909650;29;20103;-77
2022/05/18 02:30:05;;;;;;;12.77;3.95;;;;;;;12.31;100.00;100308.56;4896707;29;20040;-76
2022/05/18 02:32:30;;;;;;;6.65;2.72;;;;;;;12.45;100.00;100313.69;4878888;29;20059;-76
2022/05/18 02:34:56;;;;;;;5.63;2.40;;;;;;;12.40;100.00;100302.34;4884954;29;20052;-76
2022/05/18 02:37:21;;;;;;;4.70;2.40;;;;;;;12.48;100.00;100308.44;4889252;29;20127;-76
2022/05/18 02:39:47;;;;;;;15.75;3.15;;;;;;;11.52;100.00;100176.84;4889646;29;20083;-77
2022/05/18 02:42:13;;;;;;;5.57;1.98;;;;;;;12.30;100.00;100325.25;4886833;29;20143;-76
2022/05/18 02:44:39;;;;;;;8.98;2.42;;;;;;;12.36;100.00;100338.38;4891577;29;20075;-77
2022/05/18 02:47:05;;;;;;;3.97;2.00;;;;;;;11.97;100.00;100265.91;4894623;29;20052;-76
2022/05/18 02:49:31;;;;;;;6.53;2.60;;;;;;;12.13;100.00;100308.75;4893108;29;20056;-77
2022/05/18 02:51:57;;;;;;;6.38;2.65;;;;;;;12.22;100.00;100267.44;4889601;29;20048;-77
2022/05/18 02:57:08;;;;;;;6.20;1.88;;;;;;;11.94;100.00;100268.53;4896013;29;20054;-77
2022/05/18 02:59:35;;;;;;;6.63;2.42;;;;;;;12.04;100.00;100283.38;4893217;29;20044;-77
2022/05/18 03:02:01;;;;;;;4.85;2.03;;;;;;;12.10;100.00;100329.78;4891578;29;20052;-77
2022/05/18 03:04:29;;;;;;;4.60;2.28;;;;;;;11.91;100.00;100308.88;4888732;29;20076;-77
2022/05/18 03:06:56;;;;;;;4.70;1.88;;;;;;;12.13;100.00;100335.06;4891477;29;20148;-77
2022/05/18 03:09:22;;;;;;;5.53;2.10;;;;;;;11.46;100.00;100258.34;4894177;29;20040;-78
2022/05/18 03:11:49;;;;;;;6.47;2.72;;;;;;;12.15;100.00;100336.78;4890719;29;20032;-76
2022/05/18 03:14:18;;;;;;;4.82;2.50;;;;;;;12.05;100.00;100324.56;4891201;29;20057;-77
2022/05/18 03:16:44;;;;;;;12.50;3.15;;;;;;;11.47;100.00;100261.84;4893414;29;20052;-77
2022/05/18 03:19:14;;;;;;;7.72;2.58;;;;;;;11.56;100.00;100261.78;4893843;29;20673;-77
2022/05/18 03:24:25;;;;;;;6.55;3.03;;;;;;;11.66;100.00;100325.66;4891113;29;20112;-77
2022/05/18 03:26:51;;;;;;;10.90;1.92;;;;;;;11.52;100.00;100294.22;4898024;29;20541;-77
2022/05/18 03:29:17;;;;;;;6.07;2.65;;;;;;;11.39;100.00;100277.66;4891625;29;20044;-75
2022/05/18 03:31:44;;;;;;;7.45;1.92;;;;;;;11.35;100.00;100282.03;4888262;29;20051;-78
2022/05/18 03:34:10;;;;;;;6.05;2.10;;;;;;;11.60;100.00;100340.59;4895333;29;20088;-75
2022/05/18 03:36:36;;;;;;;7.18;2.85;;;;;;;11.37;100.00;100296.03;4890317;29;20036;-77
2022/05/18 03:39:03;;;;;;;4.65;2.67;;;;;;;11.48;100.00;100305.63;4895516;29;20040;-75
2022/05/18 03:41:29;;;;;;;4.70;2.33;;;;;;;11.31;100.00;100295.22;4890462;29;20063;-76
2022/05/18 03:43:55;;;;;;;14.43;2.95;;;;;;;11.67;100.00;100362.47;4890767;29;20064;-75
2022/05/18 03:46:21;;;;;;;3.00;1.73;;;;;;;11.58;100.00;100366.00;4889961;29;20064;-76
2022/05/18 03:48:48;;;;;;;8.32;2.85;;;;;;;11.43;100.00;100341.59;4889609;29;20412;-75
2022/05/18 03:51:16;;;;;;;4.65;2.38;;;;;;;10.87;100.00;100263.00;4896023;29;20496;-76
2022/05/18 03:53:42;;;;;;;7.22;2.45;;;;;;;11.71;100.00;100366.81;4891067;29;20047;-76
2022/05/18 03:56:10;;;;;;;5.28;2.90;;;;;;;11.37;100.00;100334.56;4907719;29;20061;-75
2022/05/18 03:58:36;;;;;;;5.60;2.28;;;;;;;11.25;100.00;100311.00;4893448;29;20069;-76
2022/05/18 04:01:08;;;;;;;4.43;1.85;;;;;;;11.73;100.00;100386.09;4885060;29;20052;-76
2022/05/18 04:03:34;;;;;;;5.47;1.85;;;;;;;11.27;100.00;100341.63;4900304;29;20199;-75
2022/05/18 04:06:00;;;;;;;8.40;3.15;;;;;;;11.32;100.00;100336.34;4892791;29;20056;-75
2022/05/18 04:08:25;;;;;;;3.97;2.17;;;;;;;11.12;99.98;100353.06;4893180;29;20057;-75
2022/05/18 04:10:51;;;;;;;6.07;2.38;;;;;;;11.26;100.00;100362.63;4891280;29;20045;-75
2022/05/18 04:13:20;;;;;;;4.90;2.33;;;;;;;11.35;99.78;100399.38;4892427;29;20112;-75
2022/05/18 04:15:47;;;;;;;4.95;2.42;;;;;;;11.41;98.57;100442.28;4893682;29;20169;-76
2022/05/18 04:18:13;;;;;;;6.22;1.83;;;;;;;11.20;99.36;100443.22;4895473;29;20055;-76
2022/05/18 04:20:40;;;;;;;3.70;2.15;;;;;;;11.22;99.64;100401.19;4890209;29;20142;-76
2022/05/18 04:23:06;;;;;;;6.00;2.03;;;;;;;11.32;99.10;100457.19;4888648;29;20056;-76
2022/05/18 04:25:32;;;;;;;4.05;1.80;;;;;;;10.65;98.94;100396.03;4892495;29;20059;-75
2022/05/18 04:27:58;;;;;;;11.45;2.47;;;;;;;11.15;99.37;100437.09;4891286;29;20057;-78
2022/05/18 04:30:26;;;;;;;8.38;2.08;;;;;;;10.71;99.37;100403.03;4908060;29;20541;-78
2022/05/18 04:32:53;;;;;;;8.45;2.80;;;;;;;10.78;98.93;100415.28;4893116;29;20041;-78
2022/05/18 04:35:23;;;;;;;8.38;2.42;;;;;;;10.85;98.33;100427.50;4888947;29;20587;-76
2022/05/18 04:37:51;;;;;;;8.30;2.28;;;;;;;10.93;98.54;100449.41;4887355;29;20105;-76
2022/05/18 04:40:18;;;;;;;4.88;2.25;;;;;;;10.71;98.66;100434.53;4887603;29;20166;-76
2022/05/18 04:42:44;;;;;;;3.83;2.22;;;;;;;10.78;99.14;100389.03;4875963;29;21250;-76
2022/05/18 04:45:13;;;;;;;5.40;1.73;;;;;;;10.68;99.11;100418.78;4898068;29;20036;-76
2022/05/18 04:47:39;;;;;;;3.95;1.92;;;;;;;11.18;98.64;100486.97;4894322;29;20048;-77
2022/05/18 04:50:06;;;;;;;5.40;2.47;;;;;;;10.73;98.64;100440.66;4885457;29;20084;-76
2022/05/18 04:52:34;;;;;;;4.82;1.48;;;;;;;10.66;98.17;100426.66;4880959;29;20049;-78
2022/05/18 04:55:00;;;;;;;8.48;3.22;;;;;;;11.08;98.38;100460.75;4886678;29;20063;-77
2022/05/18 04:57:25;;;;;;;8.38;2.35;;;;;;;10.71;98.63;100448.50;4889836;29;20036;-77
2022/05/18 04:59:51;;;;;;;6.68;2.67;;;;;;;10.99;98.68;100438.88;4890782;29;20285;-77
2022/05/18 05:02:18;;;;;;;7.97;2.55;;;;;;;10.89;98.38;100458.13;4886640;29;20048;-76
2022/05/18 05:04:44;;;;;;;5.32;2.00;;;;;;;10.54;98.87;100424.91;4887492;29;20048;-79
2022/05/18 05:07:10;;;;;;;5.57;2.60;;;;;;;10.55;98.51;100452.88;4887957;29;20092;-77
2022/05/18 05:09:39;;;;;;;17.27;2.80;;;;;;;10.93;98.64;100496.66;4893130;29;20094;-79
2022/05/18 05:12:06;;;;;;;5.32;2.42;;;;;;;10.70;98.29;100462.53;4885725;29;20040;-75
2022/05/18 05:14:34;;;;;;;3.95;2.13;;;;;;;10.97;98.39;100521.13;4890376;29;20538;-78
2022/05/18 05:17:01;;;;;;;7.63;2.63;;;;;;;10.75;98.42;100480.91;4896016;29;20055;-79
2022/05/18 05:19:28;;;;;;;3.22;1.80;;;;;;;10.68;98.62;100521.13;4891319;29;20067;-77
2022/05/18 05:21:54;;;;;;;14.80;3.38;;;;;;;10.70;98.78;100474.75;4887405;29;20040;-76
2022/05/18 05:24:20;;;;;;;3.35;1.48;;;;;;;10.63;97.99;100491.34;4890407;29;20238;-76
2022/05/18 05:26:49;;;;;;;8.25;2.22;;;;;;;10.61;98.24;100494.00;4893157;29;20040;-76
2022/05/18 05:29:17;;;;;;;5.65;1.83;;;;;;;10.66;98.16;100534.25;4892298;29;20059;-76
2022/05/18 05:31:45;;;;;;;7.38;1.95;;;;;;;10.62;97.48;100532.47;4875690;29;20601;-76
2022/05/18 05:34:10;;;;;;;7.32;2.80;;;;;;;10.76;95.99;100583.22;4878206;29;20052;-76
2022/05/18 05:36:36;;;;;;;3.30;1.70;;;;;;;10.38;94.74;100517.56;4865996;29;20426;-83
2022/05/18 05:39:02;;;;;;;8.98;2.88;;;;;;;10.34;93.20;100544.66;4898027;29;20281;-86
2022/05/18 05:41:28;;;;;;;2.72;1.35;;;;;;;10.26;91.70;100543.72;4886699;29;20134;-82
2022/05/18 05:43:55;;;;;;;10.75;2.13;;;;;;;10.44;91.13;100603.25;4886027;29;20733;-82
2022/05/18 05:46:20;;;;;;;12.80;2.63;;;;;;;10.11;91.75;100555.03;4883398;29;20517;-80
2022/05/18 05:52:41;;;;;;;4.68;1.98;;;;;;;10.41;90.00;100609.38;4881794;29;20092;-76
2022/05/18 05:55:07;;;;;;;3.85;1.88;;;;;;;10.13;89.65;100585.63;4881362;29;20047;-75
2022/05/18 05:57:33;;;;;;;5.40;2.65;;;;;;;10.29;86.29;100593.59;4884704;29;20083;-74
2022/05/18 06:00:00;;;;;;;10.80;3.38;;;;;;;10.12;86.23;100575.16;4891190;29;20139;-75
2022/05/18 06:02:26;;;;;;;5.00;2.30;;;;;;;10.14;87.40;100590.00;4891961;29;20061;-74
2022/05/18 06:04:52;;;;;;;7.68;2.80;;;;;;;10.33;87.06;100629.47;4893360;29;20469;-74
2022/05/18 06:07:17;;;;;;;5.93;2.22;;;;;;;9.85;86.70;100617.81;4869061;29;20057;-75
2022/05/18 06:09:43;;;;;;;6.35;2.40;;;;;;;10.05;86.61;100645.03;4891302;29;20139;-76
2022/05/18 06:12:09;;;;;;;15.80;2.40;;;;;;;9.95;87.58;100645.84;4887968;29;20591;-75
2022/05/18 06:14:35;;;;;;;12.48;2.90;;;;;;;10.12;85.51;100667.78;4889679;29;20059;-75
2022/05/18 06:17:00;;;;;;;11.40;3.08;;;;;;;9.79;86.49;100634.38;4889209;29;20667;-75
2022/05/18 06:19:27;;;;;;;6.95;3.53;;;;;;;10.01;85.87;100665.97;4887760;29;20073;-76
2022/05/18 06:21:52;;;;;;;11.73;4.40;;;;;;;10.04;88.44;100634.50;4870127;29;20056;-75
2022/05/18 06:24:19;;;;;;;5.07;2.67;;;;;;;9.78;nan;100643.09;4894603;29;20477;-75
2022/05/18 06:26:45;;;;;;;10.48;2.65;;;;;;;9.88;85.21;100641.41;4878495;29;20044;-76
2022/05/18 06:29:13;;;;;;;5.93;2.75;;;;;;;10.09;85.88;100670.41;4890371;29;20048;-76
2022/05/18 06:31:41;;;;;;;8.50;2.85;;;;;;;9.93;85.48;100653.69;4894434;29;20578;-75
2022/05/18 06:34:08;;;;;;;6.03;2.53;;;;;;;10.32;85.84;100722.13;4898585;29;20052;-76
2022/05/18 06:36:34;;;;;;;12.45;2.53;;;;;;;10.21;84.53;100693.19;4895947;29;20382;-76
2022/05/18 06:39:01;;;;;;;11.80;2.65;;;;;;;10.04;84.67;100682.56;4873727;29;20028;-77
2022/05/18 06:41:26;;;;;;;6.60;2.38;;;;;;;10.08;84.75;100700.09;4889309;29;20092;-75
2022/05/18 06:44:02;;;;;;;5.63;2.35;;;;;;;9.95;83.93;100682.53;4886911;29;20037;-75
2022/05/18 06:46:30;;;;;;;14.43;3.40;;;;;;;9.99;83.73;100678.19;4891662;29;20051;-75
2022/05/18 06:48:56;;;;;;;10.15;2.80;;;;;;;9.97;83.82;100682.53;4891690;29;20059;-74
2022/05/18 06:51:28;;;;;;;6.75;3.08;;;;;;;10.14;84.64;100730.75;4886527;29;20072;-75
2022/05/18 06:53:54;;;;;;;21.55;3.08;;;;;;;10.41;85.96;100727.41;4892153;29;20069;-75
2022/05/18 06:56:26;;;;;;;6.18;3.17;;;;;;;10.39;85.21;100723.91;4888772;29;20068;-75
2022/05/18 06:58:52;;;;;;;16.25;3.40;;;;;;;10.40;83.13;100749.28;4889916;29;20106;-75
2022/05/18 07:01:18;;;;;;;7.60;3.38;;;;;;;9.87;81.64;100706.06;4886738;29;20056;-75
2022/05/18 07:03:45;;;;;;;6.82;2.80;;;;;;;10.43;83.53;100743.19;4905536;29;20048;-76
2022/05/18 07:06:12;;;;;;;6.50;2.40;;;;;;;10.22;82.85;100707.19;4895159;29;20044;-74
2022/05/18 07:08:38;;;;;;;4.68;2.38;;;;;;;10.24;83.44;100711.56;4889719;29;20060;-74
2022/05/18 07:11:04;;;;;;;10.35;3.35;;;;;;;10.09;84.71;100694.00;4886287;29;20133;-75
2022/05/18 07:13:34;;;;;;;10.95;3.45;;;;;;;10.53;86.54;100708.25;4887695;29;20057;-75
2022/05/18 07:16:00;;;;;;;10.63;3.88;;;;;;;10.68;88.74;100716.19;4892874;29;20052;-75
2022/05/18 07:18:29;;;;;;;8.80;3.03;;;;;;;10.94;86.36;100757.44;4890038;29;20039;-75
2022/05/18 07:20:59;;;;;;;12.95;3.83;;;;;;;10.95;86.57;100748.69;4908081;29;20124;-75
2022/05/18 07:23:27;;;;;;;7.78;2.97;;;;;;;11.12;79.79;100764.47;4889182;29;20171;-76
2022/05/18 07:25:57;;;;;;;6.47;3.47;;;;;;;11.14;82.65;100712.84;4874921;29;20068;-76
2022/05/18 07:28:24;;;;;;;17.58;3.00;;;;;;;10.79;80.45;100745.09;4885615;29;20052;-74
2022/05/18 07:30:51;;;;;;;6.50;3.38;;;;;;;10.89;80.95;100717.16;4894398;29;20450;-77
2022/05/18 07:33:20;;;;;;;8.45;2.85;;;;;;;11.24;80.26;100779.41;4889493;29;20032;-77
2022/05/18 07:35:46;;;;;;;15.20;3.95;;;;;;;11.22;80.99;100754.91;4889559;29;20084;-74
2022/05/18 07:38:13;;;;;;;8.27;3.78;;;;;;;11.38;80.82;100780.34;4884753;29;20468;-75
2022/05/18 07:40:40;;;;;;;5.40;3.03;;;;;;;11.41;81.96;100738.31;4888695;29;20507;-75
2022/05/18 07:43:07;;;;;;;18.42;3.53;;;;;;;11.26;82.96;100736.53;4888559;29;20060;-74
2022/05/18 07:45:35;;;;;;;7.43;3.28;;;;;;;11.60;81.59;100763.72;4885850;29;20056;-76
2022/05/18 07:48:00;;;;;;;12.77;3.78;;;;;;;11.77;78.55;100755.00;4889188;29;20040;-75
2022/05/18 07:50:27;;;;;;;12.65;3.38;;;;;;;11.96;81.52;100816.38;4899790;29;20059;-74
2022/05/18 07:52:57;;;;;;;9.32;3.40;;;;;;;12.02;80.38;100801.50;4890445;29;20064;-75
2022/05/18 07:55:23;;;;;;;18.92;3.55;;;;;;;11.70;77.89;100780.38;4893078;29;20063;-75
2022/05/18 07:57:48;;;;;;;12.27;3.78;;;;;;;12.09;81.32;100793.63;4886419;29;20040;-74
2022/05/18 08:00:15;;;;;;;12.07;3.17;;;;;;;12.22;80.83;100793.63;4891481;29;20040;-77
2022/05/18 08:02:44;;;;;;;16.90;4.03;;;;;;;11.98;75.84;100762.03;4895242;29;20052;-74
2022/05/18 08:05:10;;;;;;;11.90;3.28;;;;;;;13.48;72.64;100742.25;4889591;29;20587;-73
2022/05/18 08:07:45;;;;;;;6.97;2.95;;;;;;;14.48;75.56;100759.88;4892120;29;20071;-74
2022/05/18 08:15:44;;;;;;;12.70;3.00;;;;;;;14.96;67.08;100828.94;4889889;29;20051;-73
2022/05/18 08:18:11;;;;;;;5.70;2.45;;;;;;;13.95;63.93;100828.06;4889100;29;20033;-73
2022/05/18 08:20:40;;;;;;;4.75;2.30;;;;;;;14.45;74.35;100784.56;4890148;29;20621;-75
2022/05/18 08:23:07;;;;;;;6.93;1.77;;;;;;;14.10;65.90;100809.50;4889845;29;20464;-72
2022/05/18 08:25:32;;;;;;;2.97;1.77;;;;;;;14.06;63.01;100852.63;4887367;29;20051;-73
2022/05/18 08:27:58;;;;;;;12.82;2.85;;;;;;;13.43;69.68;100831.91;4903265;29;20063;-74
2022/05/18 08:30:24;;;;;;;12.38;3.00;;;;;;;14.62;72.42;100736.88;4886942;29;20045;-74
2022/05/18 08:32:53;;;;;;;4.18;2.38;;;;;;;14.67;67.24;100816.94;4904416;29;20036;-74
2022/05/18 08:35:19;;;;;;;8.27;2.20;;;;;;;13.89;69.61;100810.53;4887703;29;20478;-74
2022/05/18 08:37:46;;;;;;;13.38;2.13;;;;;;;13.74;65.39;100866.03;4899604;29;20045;-74
2022/05/18 08:40:43;;;;;;;10.05;2.53;;;;;;;15.27;71.65;100862.97;4885202;29;20126;-74
2022/05/18 08:43:17;;;;;;;11.13;3.20;;;;;;;14.14;62.86;100882.50;4875804;29;20453;-74
2022/05/18 08:45:48;;;;;;;18.90;2.58;;;;;;;13.73;67.03;100848.47;4879006;29;20055;-74
2022/05/18 08:48:42;;;;;;;9.75;2.83;;;;;;;13.91;65.99;100858.91;4890260;29;20044;-75
2022/05/18 08:51:38;;;;;;;20.52;2.10;;;;;;;15.94;62.10;100882.38;4891277;29;20052;-73
2022/05/18 08:54:45;;;;;;;8.75;2.33;;;;;;;15.02;61.79;100854.44;4887878;29;20059;-75
2022/05/18 08:57:26;;;;;;;21.08;2.85;;;;;;;14.41;61.56;100855.88;4881539;29;20049;-73
2022/05/18 08:59:58;;;;;;;5.28;1.90;;;;;;;14.50;61.85;100903.34;4888855;29;20053;-72
2022/05/18 09:02:28;;;;;;;11.43;2.13;;;;;;;14.94;67.30;100855.41;4888659;29;20147;-74
2022/05/18 09:05:07;;;;;;;10.90;2.17;;;;;;;14.30;56.40;100922.84;4905094;29;20700;-74
2022/05/18 09:07:46;;;;;;;14.25;1.90;;;;;;;13.24;58.80;100923.31;4890044;29;20055;-75
2022/05/18 09:10:30;;;;;;;4.25;1.83;;;;;;;13.23;58.91;100905.78;4891870;29;20084;-75
2022/05/18 09:12:55;;;;;;;;;;;;;;;13.21;57.20;100904.03;4888100;29;20044;-75
2022/05/18 09:15:42;;;;;;;10.65;2.55;;;;;;;13.01;59.99;100875.09;4894453;29;19923;-75
2022/05/18 09:18:24;;;;;;;21.38;3.05;;;;;;;13.30;62.08;100886.47;4887594;29;20038;-76
2022/05/18 09:21:05;;;;;;;14.07;2.75;;;;;;;13.16;56.88;100908.41;4887135;29;20481;-74
2022/05/18 09:23:49;;;;;;;15.40;2.72;;;;;;;13.16;61.79;100896.13;4891976;29;20064;-77
2022/05/18 09:26:35;;;;;;;10.82;2.33;;;;;;;13.43;59.67;100916.28;4892400;29;20052;-75
2022/05/18 09:29:22;;;;;;;3.35;2.10;;;;;;;13.62;61.96;100898.59;4890631;29;20052;-75
2022/05/18 09:32:12;;;;;;;7.40;2.42;;;;;;;13.73;62.40;100917.91;4897404;29;20067;-75
2022/05/18 09:34:58;;;;;;;8.38;3.17;;;;;;;13.47;60.74;100909.25;4897081;29;20560;-75
2022/05/18 09:37:33;;;;;;;6.03;2.05;;;;;;;13.61;60.61;100899.50;4884432;29;20448;-75
2022/05/18 09:40:13;;;;;;;15.60;2.45;;;;;;;13.79;59.11;100918.75;4887344;29;20151;-75
2022/05/18 09:43:05;;;;;;;5.32;1.65;;;;;;;14.05;57.46;100947.66;4888409;29;20043;-77
2022/05/18 09:45:36;;;;;;;7.53;2.38;;;;;;;13.89;55.94;100912.56;4883485;29;21240;-74
2022/05/18 09:48:09;;;;;;;7.55;2.38;;;;;;;14.06;58.35;100938.84;4893632;29;20039;-75
2022/05/18 09:50:40;;;;;;;13.45;1.88;;;;;;;14.01;58.08;100922.16;4894379;29;20056;-75
2022/05/18 09:53:06;;;;;;;18.02;2.92;;;;;;;13.88;55.68;100913.44;4894395;29;20047;-76
2022/05/18 09:55:34;;;;;;;5.72;2.75;;;;;;;14.42;57.66;100944.75;4912461;29;20068;-76
2022/05/18 09:58:24;;;;;;;9.63;2.60;;;;;;;14.50;54.88;100945.59;4895381;29;20066;-76
2022/05/18 10:07:26;;;;;;;10.32;2.35;;;;;;;14.67;58.10;100974.53;4859244;29;20052;-75
2022/05/18 10:09:49;;;;;;;7.15;1.63;;;;;;;14.47;52.63;100954.41;4894529;29;20071;-75
2022/05/18 10:12:26;;;;;;;6.25;2.47;;;;;;;14.66;56.00;100965.75;4889749;29;20063;-75
2022/05/18 10:15:19;;;;;;;4.95;1.90;;;;;;;14.34;52.47;100936.91;4894241;29;20044;-75
2022/05/18 10:17:50;;;;;;;8.98;1.83;;;;;;;14.74;55.56;100965.69;4893006;29;20056;-75
2022/05/18 10:20:35;;;;;;;9.18;3.00;;;;;;;14.46;55.97;100947.38;4895195;29;20059;-75
2022/05/18 10:23:01;;;;;;;4.60;1.70;;;;;;;14.40;53.88;100965.00;4890322;29;20056;-75
2022/05/18 10:25:49;;;;;;;5.25;1.40;;;;;;;14.24;50.83;100954.56;4906539;29;20067;-75
2022/05/18 10:28:29;;;;;;;5.65;1.70;;;;;;;14.12;50.01;100959.94;4892632;29;20063;-76
2022/05/18 10:31:04;;;;;;;3.25;1.50;;;;;;;14.22;50.35;100969.53;4909956;29;20051;-76
2022/05/18 10:33:35;;;;;;;16.58;1.90;;;;;;;14.38;51.67;100999.38;4890503;29;20044;-77
2022/05/18 10:36:25;;;;;;;7.88;1.35;;;;;;;14.62;49.96;101000.13;4890413;29;20054;-75
2022/05/18 10:38:57;;;;;;;7.72;1.83;;;;;;;14.46;49.83;100973.78;4887567;29;20053;-76
2022/05/18 10:41:28;;;;;;;14.60;2.15;;;;;;;14.43;50.20;100973.81;4893216;29;20123;-75
2022/05/18 10:44:14;;;;;;;6.10;1.40;;;;;;;15.00;57.26;100999.81;4893399;29;20060;-76
2022/05/18 10:46:44;;;;;;;10.57;1.88;;;;;;;15.17;54.78;100987.31;4907181;29;20138;-75
2022/05/18 10:49:36;;;;;;;2.92;1.40;;;;;;;15.31;50.74;100995.13;4893135;29;20127;-76
2022/05/18 10:52:17;;;;;;;4.72;1.95;;;;;;;14.94;51.89;100978.72;4906930;29;20112;-76
2022/05/18 10:55:25;;;;;;;19.25;2.63;;;;;;;15.08;55.48;100966.25;4895719;29;20052;-76
2022/05/18 10:58:06;;;;;;;7.63;1.90;;;;;;;15.03;53.77;100965.44;4887775;29;20208;-75
2022/05/18 11:01:08;;;;;;;3.42;1.63;;;;;;;14.96;51.88;100969.91;4892767;29;20048;-76
2022/05/18 11:03:37;;;;;;;8.15;2.03;;;;;;;15.04;51.21;100976.88;4892144;29;20032;-75
2022/05/18 11:06:27;;;;;;;7.35;1.80;;;;;;;15.09;47.57;100997.06;4894012;29;20051;-76
2022/05/18 11:08:52;;;;;;;7.15;2.03;;;;;;;15.47;49.48;101000.22;4894069;29;20159;-76
2022/05/18 11:11:55;;;;;;;4.55;1.80;;;;;;;15.63;46.97;101010.63;4892530;29;20103;-75
2022/05/18 11:14:42;;;;;;;7.72;1.75;;;;;;;15.50;50.12;100985.22;4892748;29;20111;-75
2022/05/18 11:17:26;;;;;;;9.63;2.00;;;;;;;15.73;48.63;101035.25;4893311;29;20052;-74
2022/05/18 11:20:13;;;;;;;19.30;1.73;;;;;;;15.54;48.23;101031.88;4896323;29;20052;-75
2022/05/18 11:23:09;;;;;;;11.57;1.50;;;;;;;15.43;49.81;100999.41;4893999;29;20056;-75
2022/05/18 11:26:00;;;;;;;9.68;1.90;;;;;;;15.39;50.92;101030.28;4893444;29;20059;-75
2022/05/18 11:29:01;;;;;;;9.95;1.50;;;;;;;15.38;49.83;101011.78;4893201;29;20068;-75
2022/05/18 11:31:39;;;;;;;7.05;2.33;;;;;;;15.24;52.07;101043.66;4839320;29;20092;-75
2022/05/18 11:34:19;;;;;;;9.70;1.50;;;;;;;15.40;49.57;101060.25;4893643;29;20052;-75
2022/05/18 11:36:57;;;;;;;6.78;2.00;;;;;;;14.94;51.35;101034.22;4889128;29;20076;-76
2022/05/18 11:40:09;;;;;;;5.80;1.13;;;;;;;14.72;45.94;101073.13;4892378;29;20043;-75
2022/05/18 11:42:56;;;;;;;7.10;1.33;;;;;;;14.32;44.14;101057.47;4874490;29;20136;-75
2022/05/18 11:45:40;;;;;;;9.45;2.67;;;;;;;14.83;46.73;101096.84;4895303;29;20478;-75
2022/05/18 11:48:42;;;;;;;15.07;2.63;;;;;;;14.88;44.81;101061.56;4890069;29;20104;-77
2022/05/18 11:51:15;;;;;;;8.10;1.40;;;;;;;14.41;45.12;101043.34;4893764;29;20515;-77
2022/05/18 11:53:49;;;;;;;7.40;1.55;;;;;;;14.88;43.21;101116.19;4890006;29;20424;-74
2022/05/18 11:56:21;;;;;;;16.80;1.45;;;;;;;14.97;46.87;101081.75;4892564;29;20048;-75
2022/05/18 11:59:19;;;;;;;3.85;1.30;;;;;;;14.98;43.75;101091.44;4894157;29;20107;-75
2022/05/18 12:02:14;;;;;;;3.38;1.85;;;;;;;14.78;46.27;101073.09;4895168;29;20047;-75